createdAt,value
2018-09-01T00:00:06.106Z,41.3
2018-09-01T00:02:05.952Z,41.3
2018-09-01T00:04:05.749Z,41.3
2018-09-01T00:06:05.465Z,41.4
2018-09-01T00:08:07.679Z,41.4
2018-09-01T00:10:08.416Z,41.1
2018-09-01T00:12:07.650Z,41.4
2018-09-01T00:14:05.401Z,41.1
2018-09-01T00:16:05.217Z,41.4
2018-09-01T00:18:05.159Z,41.1
2018-09-01T00:20:05.831Z,41.1
2018-09-01T00:22:05.500Z,41.1
2018-09-01T00:24:15.394Z,41.1
2018-09-01T00:26:05.160Z,41.1
2018-09-01T00:28:05.835Z,41.2
2018-09-01T00:30:05.563Z,41.2
2018-09-01T00:32:07.791Z,41.1
2018-09-01T00:34:05.470Z,41.2
2018-09-01T00:36:05.176Z,41.2
2018-09-01T00:38:05.894Z,41.2
2018-09-01T00:40:05.605Z,41.2
2018-09-01T00:42:05.312Z,41.2
2018-09-01T00:44:05.036Z,41.1
2018-09-01T00:46:05.853Z,41.1
2018-09-01T00:48:05.612Z,41.1
2018-09-01T00:50:05.364Z,41.1
2018-09-01T00:52:05.063Z,41.1
2018-09-01T00:54:08.365Z,41.1
2018-09-01T00:56:07.581Z,41.1
2018-09-01T00:58:05.273Z,41.1
2018-09-01T01:00:05.970Z,41.1
2018-09-01T01:02:12.748Z,41.1
2018-09-01T01:04:05.557Z,41.1
2018-09-01T01:06:08.365Z,41.1
2018-09-01T01:08:05.070Z,41.1
2018-09-01T01:10:05.850Z,41.1
2018-09-01T01:12:05.539Z,41.1
2018-09-01T01:14:05.309Z,41.1
2018-09-01T01:16:05.029Z,40.6
2018-09-01T01:18:05.944Z,40.2
2018-09-01T01:20:05.207Z,39.4
2018-09-01T01:22:05.909Z,39
2018-09-01T01:24:05.157Z,38.7
2018-09-01T01:26:05.882Z,38.8
2018-09-01T01:28:05.605Z,38.3
2018-09-01T01:30:07.810Z,37.7
2018-09-01T01:32:05.488Z,38
2018-09-01T01:44:05.868Z,36.8
2018-09-01T01:45:12.785Z,37.3
2018-09-01T01:46:08.097Z,36.5
2018-09-01T01:48:08.323Z,36.4
2018-09-01T01:50:06.068Z,36.6
2018-09-01T01:52:07.896Z,36.3
2018-09-01T01:54:05.654Z,36.3
2018-09-01T01:56:05.395Z,36.3
2018-09-01T01:58:05.143Z,36.2
2018-09-01T02:00:05.892Z,36.1
2018-09-01T02:02:05.560Z,36.1
2018-09-01T02:04:05.267Z,35.8
2018-09-01T02:06:05.518Z,35.8
2018-09-01T02:08:05.312Z,35.6
2018-09-01T02:10:05.064Z,35.5
2018-09-01T02:12:05.785Z,35.5
2018-09-01T02:14:08.076Z,35.3
2018-09-01T02:16:07.818Z,35.3
2018-09-01T02:18:05.747Z,35.2
2018-09-01T02:20:05.441Z,35.3
2018-09-01T02:22:10.192Z,34.9
2018-09-01T02:24:08.418Z,35.1
2018-09-01T02:26:05.133Z,34.9
2018-09-01T02:28:05.819Z,34.9
2018-09-01T02:30:05.541Z,34.7
2018-09-01T02:32:05.275Z,34.8
2018-09-01T02:34:06.015Z,34.8
2018-09-01T02:36:05.695Z,34.8
2018-09-01T02:38:05.984Z,34.4
2018-09-01T02:40:05.232Z,34.5
2018-09-01T02:42:05.949Z,34.6
2018-09-01T02:44:10.705Z,34.6
2018-09-01T02:46:05.440Z,34.6
2018-09-01T02:48:07.762Z,34.6
2018-09-01T02:50:05.453Z,34.6
2018-09-01T02:52:05.213Z,34.6
2018-09-01T02:54:08.520Z,34.4
2018-09-01T02:56:05.573Z,34.4
2018-09-01T02:58:05.355Z,34.4
2018-09-01T03:00:05.035Z,34.4
2018-09-01T03:02:05.921Z,34.5
2018-09-01T03:04:05.619Z,34.4
2018-09-01T03:06:05.376Z,34.4
2018-09-01T03:08:05.089Z,34.3
2018-09-01T03:10:05.807Z,34.4
2018-09-01T03:12:05.529Z,34.4
2018-09-01T03:14:10.289Z,34.1
2018-09-01T03:16:16.100Z,34
2018-09-01T03:18:08.501Z,34.1
2018-09-01T03:20:05.180Z,34.1
2018-09-01T03:22:08.464Z,33.8
2018-09-01T03:24:05.189Z,34
2018-09-01T03:26:05.864Z,34
2018-09-01T03:28:10.689Z,33.9
2018-09-01T03:30:07.934Z,33.8
2018-09-01T03:32:05.641Z,33.8
2018-09-01T03:34:05.422Z,33.9
2018-09-01T03:36:05.241Z,33.9
2018-09-01T03:38:05.969Z,33.9
2018-09-01T03:40:13.344Z,33.8
2018-09-01T03:42:05.047Z,33.8
2018-09-01T03:44:08.324Z,33.7
2018-09-01T03:46:07.697Z,33.5
2018-09-01T03:48:07.914Z,33.6
2018-09-01T03:50:05.629Z,33.6
2018-09-01T03:52:05.330Z,33.6
2018-09-01T03:54:05.042Z,33.6
2018-09-01T03:56:08.308Z,33.6
2018-09-01T03:58:05.140Z,33.6
2018-09-01T04:00:05.861Z,33.6
2018-09-01T04:02:05.590Z,33.6
2018-09-01T04:04:05.367Z,33.7
2018-09-01T04:06:05.036Z,33.7
2018-09-01T04:08:05.752Z,33.4
2018-09-01T04:10:13.053Z,33.5
2018-09-01T04:12:10.357Z,33.5
2018-09-01T04:14:08.103Z,33.5
2018-09-01T04:16:05.788Z,33.5
2018-09-01T04:18:05.705Z,33.5
2018-09-01T04:20:10.460Z,33.5
2018-09-01T04:22:05.309Z,33.6
2018-09-01T04:24:06.045Z,33.5
2018-09-01T04:26:05.768Z,33.3
2018-09-01T04:28:05.693Z,33.5
2018-09-01T04:30:05.364Z,33.2
2018-09-01T04:32:05.357Z,33.3
2018-09-01T04:34:05.275Z,33.3
2018-09-01T04:36:11.062Z,33.3
2018-09-01T04:38:05.765Z,33.3
2018-09-01T04:40:09.553Z,33.4
2018-09-01T04:42:11.677Z,33.1
2018-09-01T04:44:07.946Z,33.1
2018-09-01T04:46:05.646Z,33.3
2018-09-01T04:48:07.962Z,33
2018-09-01T04:50:05.660Z,33
2018-09-01T04:52:05.530Z,33.2
2018-09-01T04:54:07.847Z,33
2018-09-01T04:56:08.060Z,33.1
2018-09-01T04:58:08.321Z,33
2018-09-01T05:00:05.067Z,33
2018-09-01T05:02:13.461Z,33
2018-09-01T05:04:10.198Z,33
2018-09-01T05:06:05.445Z,33
2018-09-01T05:08:05.160Z,32.9
2018-09-01T05:10:08.024Z,32.9
2018-09-01T05:12:05.734Z,32.9
2018-09-01T05:14:05.447Z,33.1
2018-09-01T05:16:05.145Z,32.8
2018-09-01T05:18:08.101Z,32.9
2018-09-01T05:20:05.810Z,32.9
2018-09-01T05:22:05.481Z,32.9
2018-09-01T05:24:05.353Z,32.9
2018-09-01T05:26:07.752Z,32.9
2018-09-01T05:28:05.433Z,32.9
2018-09-01T05:30:05.096Z,32.8
2018-09-01T05:32:05.312Z,32.9
2018-09-01T05:34:05.979Z,33.1
2018-09-01T05:36:05.749Z,33
2018-09-01T05:38:05.474Z,32.9
2018-09-01T05:40:05.265Z,33.1
2018-09-01T05:42:06.011Z,32.9
2018-09-01T05:44:08.351Z,32.9
2018-09-01T05:46:05.013Z,32.9
2018-09-01T05:48:05.816Z,33
2018-09-01T05:50:05.526Z,33
2018-09-01T05:52:05.272Z,33.3
2018-09-01T05:54:05.903Z,33.1
2018-09-01T05:56:05.534Z,33
2018-09-01T05:58:05.237Z,33
2018-09-01T06:00:05.973Z,33.2
2018-09-01T06:02:08.156Z,33.3
2018-09-01T06:04:08.423Z,33.3
2018-09-01T06:06:05.219Z,33.3
2018-09-01T06:08:05.781Z,33.2
2018-09-01T06:10:05.480Z,33.4
2018-09-01T06:12:13.453Z,33.4
2018-09-01T06:14:05.198Z,33.4
2018-09-01T06:16:05.502Z,33.4
2018-09-01T06:18:07.921Z,33.4
2018-09-01T06:20:05.612Z,33.4
2018-09-01T06:22:05.809Z,33.4
2018-09-01T06:24:07.631Z,33.7
2018-09-01T06:26:05.382Z,33.6
2018-09-01T06:28:05.157Z,33.6
2018-09-01T06:30:05.911Z,33.7
2018-09-01T06:32:05.709Z,33.6
2018-09-01T06:34:07.941Z,33.5
2018-09-01T06:36:05.673Z,33.5
2018-09-01T06:38:05.464Z,33.6
2018-09-01T06:40:07.681Z,33.8
2018-09-01T06:42:05.409Z,33.5
2018-09-01T06:44:05.077Z,33.7
2018-09-01T06:46:05.270Z,33.7
2018-09-01T06:48:05.924Z,33.7
2018-09-01T06:50:05.682Z,33.7
2018-09-01T06:52:07.912Z,33.8
2018-09-01T06:54:05.576Z,33.7
2018-09-01T06:56:05.787Z,33.8
2018-09-01T06:58:05.494Z,33.8
2018-09-01T07:00:07.707Z,33.9
2018-09-01T07:02:13.523Z,34
2018-09-01T07:04:05.279Z,34
2018-09-01T07:06:05.511Z,33.9
2018-09-01T07:08:05.704Z,34
2018-09-01T07:10:05.992Z,34.1
2018-09-01T07:12:08.243Z,34.3
2018-09-01T07:14:05.915Z,34
2018-09-01T07:16:05.574Z,34.2
2018-09-01T07:18:07.562Z,34.5
2018-09-01T07:20:05.271Z,34.5
2018-09-01T07:22:08.542Z,34.4
2018-09-01T07:24:05.262Z,34.4
2018-09-01T07:26:05.580Z,34.5
2018-09-01T07:28:12.895Z,34.7
2018-09-01T07:30:05.385Z,34.7
2018-09-01T07:32:08.089Z,34.8
2018-09-01T07:34:05.873Z,35
2018-09-01T07:36:05.576Z,34.8
2018-09-01T07:38:10.874Z,34.8
2018-09-01T07:40:07.835Z,35
2018-09-01T07:42:10.596Z,35.1
2018-09-01T07:44:08.294Z,35.1
2018-09-01T07:46:08.003Z,35.1
2018-09-01T07:48:05.661Z,35
2018-09-01T07:50:05.646Z,35.1
2018-09-01T07:52:05.712Z,35.1
2018-09-01T07:54:13.008Z,35.2
2018-09-01T07:56:05.607Z,35.2
2018-09-01T07:58:05.716Z,35.3
2018-09-01T08:00:07.961Z,35.2
2018-09-01T08:02:05.212Z,35.2
2018-09-01T08:04:05.918Z,35.4
2018-09-01T08:06:08.122Z,35.4
2018-09-01T08:08:05.097Z,35.3
2018-09-01T08:10:05.804Z,35.4
2018-09-01T08:12:05.534Z,35.4
2018-09-01T08:14:05.707Z,35.4
2018-09-01T08:16:08.404Z,35.4
2018-09-01T08:18:05.332Z,35.5
2018-09-01T08:20:05.093Z,35.7
2018-09-01T08:22:05.398Z,35.5
2018-09-01T08:24:10.153Z,35.7
2018-09-01T08:26:06.266Z,35.7
2018-09-01T08:28:05.217Z,35.6
2018-09-01T08:30:05.932Z,35.6
2018-09-01T08:32:05.607Z,35.7
2018-09-01T08:34:08.396Z,35.7
2018-09-01T08:36:05.084Z,35.7
2018-09-01T08:38:05.790Z,35.6
2018-09-01T08:40:05.501Z,35.8
2018-09-01T08:42:05.863Z,35.7
2018-09-01T08:44:05.575Z,35.7
2018-09-01T08:46:05.566Z,35.8
2018-09-01T08:48:07.896Z,35.7
2018-09-01T08:50:05.246Z,36
2018-09-01T08:52:08.432Z,35.9
2018-09-01T08:54:10.160Z,35.8
2018-09-01T08:56:05.034Z,35.8
2018-09-01T08:58:05.746Z,35.9
2018-09-01T09:00:07.625Z,36.3
2018-09-01T09:02:05.298Z,36.3
2018-09-01T09:04:05.971Z,36.3
2018-09-01T09:06:05.821Z,36.3
2018-09-01T09:08:05.532Z,36.4
2018-09-01T09:10:05.237Z,36.2
2018-09-01T09:12:05.942Z,36.3
2018-09-01T09:14:05.181Z,36.3
2018-09-01T09:16:08.476Z,36.2
2018-09-01T09:18:05.978Z,36.2
2018-09-01T09:20:06.683Z,36.4
2018-09-01T09:22:05.899Z,36.3
2018-09-01T09:24:05.607Z,36.3
2018-09-01T09:26:05.286Z,36.3
2018-09-01T09:28:05.540Z,36.1
2018-09-01T09:30:10.365Z,36.1
2018-09-01T09:32:05.107Z,36.1
2018-09-01T09:34:05.756Z,36
2018-09-01T09:36:05.405Z,36.2
2018-09-01T09:38:07.613Z,36.1
2018-09-01T09:40:05.437Z,36.1
2018-09-01T09:42:07.707Z,35.9
2018-09-01T09:44:05.419Z,35.9
2018-09-01T09:46:05.344Z,35.6
2018-09-01T09:48:05.147Z,35.9
2018-09-01T09:50:08.391Z,36
2018-09-01T09:52:05.103Z,36
2018-09-01T09:54:06.009Z,35.8
2018-09-01T09:56:05.787Z,35.6
2018-09-01T09:58:05.644Z,35.6
2018-09-01T10:00:06.025Z,35.5
2018-09-01T10:02:05.687Z,35.5
2018-09-01T10:04:05.424Z,35.1
2018-09-01T10:06:05.117Z,35.3
2018-09-01T10:08:05.833Z,35.4
2018-09-01T10:10:05.615Z,35.4
2018-09-01T10:12:07.847Z,35.4
2018-09-01T10:14:05.557Z,35.4
2018-09-01T10:16:05.238Z,35.3
2018-09-01T10:18:05.157Z,35.2
2018-09-01T10:20:06.045Z,35.6
2018-09-01T10:22:05.908Z,35.6
2018-09-01T10:24:05.628Z,35.6
2018-09-01T10:26:05.316Z,35.7
2018-09-01T10:28:08.531Z,35.9
2018-09-01T10:30:05.710Z,35.6
2018-09-01T10:32:08.295Z,35.9
2018-09-01T10:34:08.239Z,35.7
2018-09-01T10:36:05.474Z,35.7
2018-09-01T10:38:05.204Z,35.7
2018-09-01T10:40:13.538Z,35.9
2018-09-01T10:42:05.818Z,35.9
2018-09-01T10:44:05.227Z,35.8
2018-09-01T10:46:05.891Z,35.9
2018-09-01T10:48:05.726Z,35.8
2018-09-01T10:50:05.647Z,35.8
2018-09-01T10:52:05.376Z,36
2018-09-01T10:54:05.071Z,36.1
2018-09-01T10:56:05.776Z,36
2018-09-01T10:58:05.522Z,35.7
2018-09-01T11:00:07.756Z,35.7
2018-09-01T11:02:07.992Z,35.7
2018-09-01T11:04:05.770Z,35.7
2018-09-01T11:06:05.497Z,35.7
2018-09-01T11:08:10.736Z,35.7
2018-09-01T11:10:08.506Z,35.6
2018-09-01T11:12:05.745Z,35.6
2018-09-01T11:14:05.550Z,35.7
2018-09-01T11:16:07.744Z,35.9
2018-09-01T11:18:10.771Z,35.7
2018-09-01T11:20:05.864Z,35.7
2018-09-01T11:22:05.718Z,35.7
2018-09-01T11:24:07.952Z,35.7
2018-09-01T11:26:08.223Z,35.5
2018-09-01T11:28:06.225Z,35.4
2018-09-01T11:30:08.297Z,35.6
2018-09-01T11:32:05.606Z,35.6
2018-09-01T11:34:10.404Z,35.3
2018-09-01T11:36:05.309Z,35.2
2018-09-01T11:38:05.148Z,35.2
2018-09-01T11:40:05.833Z,35.2
2018-09-01T11:42:05.584Z,35.4
2018-09-01T11:44:05.264Z,35.4
2018-09-01T11:46:05.390Z,35.4
2018-09-01T11:48:05.066Z,35.4
2018-09-01T11:50:05.772Z,35.3
2018-09-01T11:52:05.276Z,35.2
2018-09-01T11:54:05.298Z,35.2
2018-09-01T11:56:06.045Z,35.5
2018-09-01T11:58:05.819Z,35.6
2018-09-01T12:00:05.544Z,35.7
2018-09-01T12:02:05.281Z,35.5
2018-09-01T12:04:07.777Z,35.6
2018-09-01T12:06:05.642Z,35.6
2018-09-01T12:08:10.454Z,35.7
2018-09-01T12:10:05.111Z,35.7
2018-09-01T12:12:05.332Z,35.8
2018-09-01T12:14:05.587Z,35.6
2018-09-01T12:16:07.863Z,35.6
2018-09-01T12:18:05.800Z,35.6
2018-09-01T12:20:05.520Z,35.6
2018-09-01T12:22:07.813Z,35.8
2018-09-01T12:24:05.488Z,35.8
2018-09-01T12:26:07.835Z,35.6
2018-09-01T12:28:05.709Z,35.6
2018-09-01T12:30:07.570Z,35.7
2018-09-01T12:32:13.395Z,35.7
2018-09-01T12:34:05.043Z,35.7
2018-09-01T12:36:05.780Z,35.5
2018-09-01T12:38:05.548Z,35.9
2018-09-01T12:40:05.791Z,35.7
2018-09-01T12:42:05.754Z,36
2018-09-01T12:44:08.351Z,35.7
2018-09-01T12:46:05.560Z,35.7
2018-09-01T12:48:05.040Z,35.2
2018-09-01T12:50:07.799Z,35.2
2018-09-01T12:52:05.479Z,35.2
2018-09-01T12:54:05.739Z,35.5
2018-09-01T12:56:05.191Z,35.3
2018-09-01T12:58:05.871Z,35.3
2018-09-01T13:00:05.563Z,35.4
2018-09-01T13:02:05.257Z,35.4
2018-09-01T13:04:08.516Z,34.6
2018-09-01T13:06:05.199Z,34.8
2018-09-01T13:08:06.263Z,34.5
2018-09-01T13:10:05.580Z,34.7
2018-09-01T13:12:07.905Z,35
2018-09-01T13:14:05.601Z,35
2018-09-01T13:16:05.328Z,35.3
2018-09-01T13:18:05.279Z,35.1
2018-09-01T13:20:16.066Z,35.3
2018-09-01T13:22:05.871Z,35.3
2018-09-01T13:24:08.090Z,35.4
2018-09-01T13:26:05.740Z,35.5
2018-09-01T13:28:05.966Z,35.6
2018-09-01T13:30:05.658Z,35.6
2018-09-01T13:32:10.928Z,35.7
2018-09-01T13:34:07.763Z,35.7
2018-09-01T13:36:05.079Z,35.7
2018-09-01T13:38:05.847Z,35.8
2018-09-01T13:40:05.645Z,35.4
2018-09-01T13:42:07.753Z,35.3
2018-09-01T13:44:08.019Z,35.5
2018-09-01T13:46:05.851Z,35.5
2018-09-01T13:48:05.827Z,35.5
2018-09-01T13:50:08.043Z,35.6
2018-09-01T13:52:05.754Z,35.6
2018-09-01T13:54:05.512Z,35.7
2018-09-01T13:56:05.426Z,35.8
2018-09-01T13:58:07.638Z,35.8
2018-09-01T14:00:05.282Z,36
2018-09-01T14:02:05.513Z,35.8
2018-09-01T14:04:05.288Z,35.7
2018-09-01T14:06:11.068Z,36
2018-09-01T14:08:05.366Z,36
2018-09-01T14:10:05.108Z,36
2018-09-01T14:12:05.844Z,36
2018-09-01T14:14:05.493Z,36.1
2018-09-01T14:16:05.686Z,36.2
2018-09-01T14:18:10.179Z,36.1
2018-09-01T14:20:05.830Z,36.2
2018-09-01T14:22:08.083Z,36.1
2018-09-01T14:24:05.745Z,36.1
2018-09-01T14:26:05.400Z,36.2
2018-09-01T14:28:05.099Z,36.2
2018-09-01T14:30:05.800Z,36.4
2018-09-01T14:32:05.190Z,36.4
2018-09-01T14:34:06.025Z,36.4
2018-09-01T14:36:08.320Z,36.2
2018-09-01T14:38:05.597Z,36.2
2018-09-01T14:40:05.427Z,36.3
2018-09-01T14:42:07.726Z,36.2
2018-09-01T14:44:10.471Z,36.4
2018-09-01T14:46:05.185Z,36.4
2018-09-01T14:48:06.042Z,36.1
2018-09-01T14:50:05.897Z,36.2
2018-09-01T14:52:10.652Z,36.4
2018-09-01T14:54:05.376Z,36.4
2018-09-01T14:56:05.127Z,36.5
2018-09-01T14:58:05.356Z,36.3
2018-09-01T15:00:05.124Z,36.3
2018-09-01T15:02:05.418Z,36
2018-09-01T15:04:05.094Z,36.1
2018-09-01T15:06:05.764Z,36
2018-09-01T15:08:05.447Z,36.1
2018-09-01T15:10:05.233Z,36.1
2018-09-01T15:12:05.104Z,36.2
2018-09-01T15:14:26.092Z,36.1
2018-09-01T15:16:05.787Z,36.1
2018-09-01T15:18:08.250Z,36.1
2018-09-01T15:20:11.036Z,36.2
2018-09-01T15:22:05.228Z,36.2
2018-09-01T15:24:05.889Z,36.1
2018-09-01T15:26:05.599Z,36.3
2018-09-01T15:28:05.316Z,36.1
2018-09-01T15:30:06.018Z,36.1
2018-09-01T15:32:05.269Z,36.1
2018-09-01T15:34:08.518Z,36.4
2018-09-01T15:36:10.976Z,36.2
2018-09-01T15:38:05.701Z,36.2
2018-09-01T15:40:05.431Z,36.2
2018-09-01T15:42:05.125Z,36.5
2018-09-01T15:44:05.792Z,36.5
2018-09-01T15:46:05.481Z,36.6
2018-09-01T15:48:10.271Z,36.5
2018-09-01T15:50:05.504Z,36.5
2018-09-01T15:52:05.185Z,36.5
2018-09-01T15:54:05.936Z,36.6
2018-09-01T15:56:05.749Z,36.5
2018-09-01T15:58:08.025Z,36.7
2018-09-01T16:00:05.792Z,36.7
2018-09-01T16:02:06.013Z,36.8
2018-09-01T16:04:05.730Z,36.6
2018-09-01T16:06:05.470Z,36.8
2018-09-01T16:08:07.667Z,36.7
2018-09-01T16:10:05.889Z,36.7
2018-09-01T16:12:05.234Z,36.6
2018-09-01T16:14:05.973Z,36.8
2018-09-01T16:16:05.678Z,36.7
2018-09-01T16:18:08.121Z,36.7
2018-09-01T16:20:05.429Z,36.7
2018-09-01T16:22:10.430Z,36.9
2018-09-01T16:24:05.177Z,36.9
2018-09-01T16:26:05.447Z,36.9
2018-09-01T16:28:05.803Z,36.8
2018-09-01T16:30:05.487Z,37
2018-09-01T16:32:07.756Z,37
2018-09-01T16:34:05.956Z,37
2018-09-01T16:36:05.693Z,37
2018-09-01T16:38:05.385Z,37.3
2018-09-01T16:40:05.085Z,37.2
2018-09-01T16:42:05.765Z,37.1
2018-09-01T16:44:05.521Z,37.3
2018-09-01T16:46:05.230Z,37.1
2018-09-01T16:48:10.951Z,37.2
2018-09-01T16:50:05.642Z,37.2
2018-09-01T16:52:05.453Z,37.3
2018-09-01T16:54:05.295Z,37.2
2018-09-01T16:56:05.985Z,37.4
2018-09-01T16:58:13.216Z,37.5
2018-09-01T17:00:05.907Z,37.5
2018-09-01T17:02:05.593Z,37.4
2018-09-01T17:04:10.321Z,37.4
2018-09-01T17:06:06.017Z,37.4
2018-09-01T17:08:05.287Z,37.5
2018-09-01T17:10:05.980Z,37.4
2018-09-01T17:12:08.255Z,37.4
2018-09-01T17:14:05.943Z,37.4
2018-09-01T17:16:05.606Z,37.4
2018-09-01T17:18:05.523Z,37.6
2018-09-01T17:20:08.283Z,37.5
2018-09-01T17:22:05.985Z,37.4
2018-09-01T17:24:05.169Z,37.4
2018-09-01T17:26:06.034Z,37.5
2018-09-01T17:28:06.216Z,37.6
2018-09-01T17:30:05.280Z,37.4
2018-09-01T17:32:05.519Z,37.6
2018-09-01T17:34:05.259Z,37.5
2018-09-01T17:36:05.988Z,37.5
2018-09-01T17:38:05.690Z,37.7
2018-09-01T17:40:05.393Z,37.5
2018-09-01T17:42:05.074Z,37.7
2018-09-01T17:44:05.846Z,37.7
2018-09-01T17:46:08.049Z,37.7
2018-09-01T17:48:05.700Z,37.7
2018-09-01T17:50:05.414Z,37.7
2018-09-01T17:52:05.701Z,37.7
2018-09-01T17:54:10.985Z,37.7
2018-09-01T17:56:05.710Z,37.7
2018-09-01T17:58:05.488Z,37.7
2018-09-01T18:00:10.245Z,37.6
2018-09-01T18:02:08.587Z,37.6
2018-09-01T18:04:08.257Z,37.6
2018-09-01T18:06:05.149Z,37.6
2018-09-01T18:08:08.371Z,37.7
2018-09-01T18:10:05.100Z,37.7
2018-09-01T18:12:05.783Z,37.6
2018-09-01T18:14:13.009Z,37.7
2018-09-01T18:16:05.687Z,37.7
2018-09-01T18:18:08.097Z,37.7
2018-09-01T18:20:05.787Z,37.7
2018-09-01T18:22:08.018Z,37.8
2018-09-01T18:24:05.816Z,37.8
2018-09-01T18:26:05.025Z,37.8
2018-09-01T18:28:05.726Z,37.8
2018-09-01T18:30:05.437Z,37.8
2018-09-01T18:32:05.643Z,37.8
2018-09-01T18:34:05.836Z,37.8
2018-09-01T18:36:05.633Z,37.8
2018-09-01T18:38:05.392Z,37.8
2018-09-01T18:40:05.159Z,37.8
2018-09-01T18:42:08.477Z,37.9
2018-09-01T18:44:05.176Z,37.9
2018-09-01T18:46:05.855Z,37.9
2018-09-01T18:48:05.548Z,37.9
2018-09-01T18:50:05.249Z,37.9
2018-09-01T18:52:08.511Z,38
2018-09-01T18:54:12.955Z,37.9
2018-09-01T18:56:05.964Z,37.9
2018-09-01T18:58:05.750Z,37.9
2018-09-01T19:00:05.957Z,37.9
2018-09-01T19:02:05.383Z,37.9
2018-09-01T19:04:07.621Z,37.9
2018-09-01T19:06:05.334Z,38.1
2018-09-01T19:08:05.122Z,38
2018-09-01T19:10:10.913Z,38
2018-09-01T19:12:05.562Z,38.2
2018-09-01T19:14:07.987Z,38
2018-09-01T19:16:05.986Z,38
2018-09-01T19:18:05.964Z,38
2018-09-01T19:20:07.716Z,38
2018-09-01T19:22:05.460Z,38.2
2018-09-01T19:24:05.186Z,38.1
2018-09-01T19:26:05.465Z,38.1
2018-09-01T19:28:05.286Z,38.1
2018-09-01T19:30:11.107Z,38.1
2018-09-01T19:32:05.835Z,38.1
2018-09-01T19:34:05.529Z,38.1
2018-09-01T19:36:05.169Z,38.1
2018-09-01T19:38:08.331Z,38.1
2018-09-01T19:40:05.008Z,38.1
2018-09-01T19:42:10.310Z,38.2
2018-09-01T19:44:05.518Z,38.2
2018-09-01T19:46:05.325Z,38.1
2018-09-01T19:48:05.484Z,38.1
2018-09-01T19:50:07.838Z,38.2
2018-09-01T19:52:05.101Z,38.2
2018-09-01T19:54:08.333Z,38.2
2018-09-01T19:56:05.125Z,38.1
2018-09-01T19:58:05.783Z,38.2
2018-09-01T20:00:05.461Z,38.3
2018-09-01T20:02:05.172Z,38.3
2018-09-01T20:04:05.883Z,38.2
2018-09-01T20:06:05.713Z,38.3
2018-09-01T20:08:05.426Z,38.3
2018-09-01T20:10:07.664Z,38.3
2018-09-01T20:12:05.353Z,38
2018-09-01T20:14:07.741Z,38.3
2018-09-01T20:16:08.363Z,38.3
2018-09-01T20:18:05.813Z,38
2018-09-01T20:20:10.559Z,38.3
2018-09-01T20:22:05.243Z,38.3
2018-09-01T20:24:05.912Z,38.1
2018-09-01T20:26:05.640Z,38.1
2018-09-01T20:28:05.351Z,38.1
2018-09-01T20:30:10.047Z,38.1
2018-09-01T20:32:05.749Z,38.2
2018-09-01T20:34:05.967Z,38.1
2018-09-01T20:36:11.773Z,38.1
2018-09-01T20:38:08.314Z,38.1
2018-09-01T20:40:05.590Z,38.1
2018-09-01T20:42:05.320Z,38.2
2018-09-01T20:44:05.250Z,38.1
2018-09-01T20:46:05.955Z,38.2
2018-09-01T20:48:08.223Z,38.2
2018-09-01T20:50:05.920Z,38.2
2018-09-01T20:52:05.901Z,38.2
2018-09-01T20:54:05.622Z,38.1
2018-09-01T20:56:07.812Z,38.2
2018-09-01T20:58:05.485Z,38.1
2018-09-01T21:00:07.725Z,38.2
2018-09-01T21:02:10.981Z,38.2
2018-09-01T21:04:05.714Z,38.2
2018-09-01T21:06:05.501Z,38.2
2018-09-01T21:08:05.239Z,38.2
2018-09-01T21:10:05.939Z,38.2
2018-09-01T21:12:05.797Z,38.2
2018-09-01T21:14:10.526Z,38.2
2018-09-01T21:16:05.259Z,38
2018-09-01T21:18:05.279Z,38.2
2018-09-01T21:20:07.534Z,38.2
2018-09-01T21:22:08.288Z,38.2
2018-09-01T21:24:05.505Z,38.2
2018-09-01T21:26:05.306Z,38.2
2018-09-01T21:28:05.044Z,38.2
2018-09-01T21:30:05.365Z,38.2
2018-09-01T21:32:05.340Z,38.2
2018-09-01T21:34:05.363Z,38
2018-09-01T21:36:05.437Z,38.3
2018-09-01T21:38:05.184Z,38.3
2018-09-01T21:40:08.429Z,38.1
2018-09-01T21:42:07.674Z,38.3
2018-09-01T21:44:05.313Z,38
2018-09-01T21:46:05.550Z,38
2018-09-01T21:48:07.760Z,38.2
2018-09-01T21:50:05.447Z,38.2
2018-09-01T21:52:12.947Z,38.2
2018-09-01T21:54:05.100Z,38.2
2018-09-01T21:56:05.780Z,38.2
2018-09-01T21:58:05.992Z,38.2
2018-09-01T22:00:08.203Z,38
2018-09-01T22:02:05.434Z,38.3
2018-09-01T22:04:05.120Z,38.1
2018-09-01T22:06:08.395Z,38.1
2018-09-01T22:08:05.085Z,38.1
2018-09-01T22:10:05.867Z,38.1
2018-09-01T22:12:07.597Z,38.2
2018-09-01T22:14:05.512Z,38.2
2018-09-01T22:16:07.749Z,38.1
2018-09-01T22:18:05.753Z,38.1
2018-09-01T22:20:08.013Z,38
2018-09-01T22:22:05.747Z,38
2018-09-01T22:24:08.030Z,38.1
2018-09-01T22:26:08.298Z,38.2
2018-09-01T22:28:08.123Z,38.1
2018-09-01T22:30:08.360Z,38
2018-09-01T22:32:05.113Z,38.1
2018-09-01T22:34:10.911Z,38
2018-09-01T22:36:10.264Z,38.1
2018-09-01T22:38:07.597Z,38
2018-09-01T22:40:05.274Z,38
2018-09-01T22:42:05.959Z,38
2018-09-01T22:44:05.666Z,38
2018-09-01T22:46:05.426Z,37.9
2018-09-01T22:48:05.187Z,38
2018-09-01T22:50:05.943Z,38
2018-09-01T22:52:05.676Z,38
2018-09-01T22:54:05.344Z,38
2018-09-01T22:56:07.536Z,37.9
2018-09-01T22:58:07.765Z,37.9
2018-09-01T23:00:05.465Z,37.7
2018-09-01T23:02:05.166Z,37.9
2018-09-01T23:04:05.428Z,37.8
2018-09-01T23:06:05.140Z,38
2018-09-01T23:08:05.852Z,37.8
2018-09-01T23:10:10.612Z,37.8
2018-09-01T23:12:07.934Z,37.7
2018-09-01T23:14:05.686Z,37.8
2018-09-01T23:16:10.414Z,37.8
2018-09-01T23:18:05.309Z,37.8
2018-09-01T23:20:05.013Z,37.8
2018-09-01T23:22:05.741Z,38
2018-09-01T23:24:07.984Z,37.9
2018-09-01T23:26:05.643Z,37.7
2018-09-01T23:28:05.407Z,37.9
2018-09-01T23:30:07.645Z,37.9
2018-09-01T23:32:07.918Z,37.9
2018-09-01T23:34:05.133Z,37.9
2018-09-01T23:36:05.808Z,37.9
2018-09-01T23:38:05.570Z,37.5
2018-09-01T23:40:05.257Z,37
2018-09-01T23:42:08.521Z,36.3
2018-09-01T23:44:05.265Z,36.4
2018-09-01T23:46:08.456Z,35.7
2018-09-01T23:48:05.281Z,35.6
2018-09-01T23:50:06.056Z,35.7
2018-09-01T23:52:05.780Z,35.3
2018-09-01T23:54:05.611Z,34.9
2018-09-01T23:56:07.824Z,34.5
2018-09-01T23:58:05.576Z,34.6
